createdAt,value
2019-04-25T00:01:04.547Z,99811.28
2019-04-25T00:02:21.221Z,99812.03
2019-04-25T00:03:45.524Z,99812.11
2019-04-25T00:04:54.059Z,99811.25
2019-04-25T00:05:58.865Z,99817.00
2019-04-25T00:07:03.332Z,99831.50
2019-04-25T00:08:08.067Z,99844.11
2019-04-25T00:09:14.410Z,99859.20
2019-04-25T00:10:18.962Z,99878.05
2019-04-25T00:11:23.941Z,99891.16
2019-04-25T00:12:28.691Z,99898.56
2019-04-25T00:13:35.062Z,99902.27
2019-04-25T00:14:41.671Z,99906.62
2019-04-25T00:15:47.111Z,99909.72
2019-04-25T00:16:52.604Z,99920.64
2019-04-25T00:17:57.067Z,99914.19
2019-04-25T00:19:01.934Z,99914.31
2019-04-25T00:20:07.960Z,99915.72
2019-04-25T00:21:14.090Z,99907.00
2019-04-25T00:22:36.546Z,99896.25
2019-04-25T00:23:43.708Z,99889.09
2019-04-25T00:25:15.028Z,99900.05
2019-04-25T00:26:14.125Z,99907.33
2019-04-25T00:27:18.587Z,99915.47
2019-04-25T00:28:23.182Z,99916.72
2019-04-25T00:29:27.648Z,99910.02
2019-04-25T00:30:33.004Z,99906.01
2019-04-25T00:31:37.467Z,99907.98
2019-04-25T00:32:42.914Z,99907.32
2019-04-25T00:33:48.241Z,99911.13
2019-04-25T00:34:52.841Z,99914.97
2019-04-25T00:35:57.370Z,99920.80
2019-04-25T00:37:02.512Z,99919.11
2019-04-25T00:38:07.476Z,99920.62
2019-04-25T00:39:11.958Z,99933.33
2019-04-25T00:40:16.692Z,99925.39
2019-04-25T00:41:21.446Z,99926.47
2019-04-25T00:42:25.913Z,99921.55
2019-04-25T00:43:31.444Z,99918.52
2019-04-25T00:44:36.088Z,99925.59
2019-04-25T00:45:42.421Z,99925.27
2019-04-25T00:46:49.082Z,99928.66
2019-04-25T00:47:53.044Z,99929.66
2019-04-25T00:48:57.511Z,99933.55
2019-04-25T00:50:02.419Z,99941.20
2019-04-25T00:51:06.970Z,99933.51
2019-04-25T00:52:11.703Z,99929.70
2019-04-25T00:53:16.203Z,99923.88
2019-04-25T00:54:22.552Z,99928.12
2019-04-25T00:55:29.005Z,99929.61
2019-04-25T00:56:33.004Z,99932.66
2019-04-25T00:57:38.434Z,99934.77
2019-04-25T00:58:59.608Z,99936.55
2019-04-25T01:00:21.641Z,99935.84
2019-04-25T01:01:41.365Z,99938.07
2019-04-25T01:02:48.338Z,99933.98
2019-04-25T01:03:54.505Z,99927.23
2019-04-25T01:04:58.916Z,99922.07
2019-04-25T01:06:03.901Z,99926.98
2019-04-25T01:07:08.702Z,99926.64
2019-04-25T01:08:13.169Z,99931.60
2019-04-25T01:09:18.304Z,99934.70
2019-04-25T01:10:23.126Z,99946.48
2019-04-25T01:11:27.828Z,99951.36
2019-04-25T01:12:32.287Z,99953.79
2019-04-25T01:13:36.765Z,99942.72
2019-04-25T01:14:42.038Z,99941.80
2019-04-25T01:15:47.059Z,99938.30
2019-04-25T01:16:52.978Z,99938.80
2019-04-25T01:17:58.030Z,99933.55
2019-04-25T01:19:03.534Z,99944.12
2019-04-25T01:20:08.431Z,99944.53
2019-04-25T01:21:14.132Z,99941.09
2019-04-25T01:22:19.046Z,99950.73
2019-04-25T01:23:23.756Z,99942.80
2019-04-25T01:24:28.327Z,99935.85
2019-04-25T01:25:40.989Z,99938.58
2019-04-25T01:26:39.532Z,99933.55
2019-04-25T01:27:43.987Z,99945.41
2019-04-25T01:28:48.455Z,99945.23
2019-04-25T01:29:54.454Z,99949.59
2019-04-25T01:31:00.556Z,99941.20
2019-04-25T01:32:06.483Z,99940.58
2019-04-25T01:33:11.346Z,99930.26
2019-04-25T01:34:17.451Z,99927.61
2019-04-25T01:35:26.250Z,99932.45
2019-04-25T01:36:35.422Z,99933.92
2019-04-25T01:37:57.825Z,99935.62
2019-04-25T01:39:20.068Z,99940.92
2019-04-25T01:40:43.912Z,99947.98
2019-04-25T01:41:50.103Z,99949.30
2019-04-25T01:43:09.451Z,99954.93
2019-04-25T01:44:28.115Z,99953.16
2019-04-25T01:45:34.517Z,99959.23
2019-04-25T01:46:40.554Z,99959.23
2019-04-25T01:47:45.545Z,99958.17
2019-04-25T01:48:50.257Z,99961.86
2019-04-25T01:49:56.592Z,99957.09
2019-04-25T01:51:04.014Z,99954.87
2019-04-25T01:52:08.643Z,99956.72
2019-04-25T01:53:14.619Z,99954.00
2019-04-25T01:54:19.304Z,99953.13
2019-04-25T01:55:23.764Z,99948.25
2019-04-25T01:56:28.229Z,99947.72
2019-04-25T01:57:33.752Z,99956.19
2019-04-25T01:58:38.247Z,99955.24
2019-04-25T01:59:43.845Z,99951.77
2019-04-25T02:00:51.347Z,99951.69
2019-04-25T02:01:56.792Z,99956.56
2019-04-25T02:03:03.692Z,99961.48
2019-04-25T02:04:08.477Z,99957.84
2019-04-25T02:05:13.984Z,99954.41
2019-04-25T02:06:18.521Z,99959.21
2019-04-25T02:07:23.356Z,99954.98
2019-04-25T02:08:28.013Z,99953.13
2019-04-25T02:09:33.695Z,99959.23
2019-04-25T02:10:38.732Z,99954.61
2019-04-25T02:11:44.908Z,99955.67
2019-04-25T02:12:52.190Z,99958.25
2019-04-25T02:13:58.892Z,99958.58
2019-04-25T02:15:05.873Z,99966.89
2019-04-25T02:16:09.713Z,99966.31
2019-04-25T02:17:14.273Z,99964.58
2019-04-25T02:18:18.734Z,99967.69
2019-04-25T02:19:24.150Z,99963.34
2019-04-25T02:20:28.746Z,99967.15
2019-04-25T02:21:33.595Z,99963.08
2019-04-25T02:22:38.410Z,99959.56
2019-04-25T02:23:44.174Z,99959.91
2019-04-25T02:24:49.177Z,99959.56
2019-04-25T02:26:06.781Z,99956.59
2019-04-25T02:27:00.799Z,99952.64
2019-04-25T02:28:05.799Z,99952.23
2019-04-25T02:29:10.603Z,99953.77
2019-04-25T02:30:16.194Z,99953.81
2019-04-25T02:31:20.654Z,99954.32
2019-04-25T02:32:25.471Z,99951.95
2019-04-25T02:33:29.981Z,99949.30
2019-04-25T02:34:34.864Z,99950.89
2019-04-25T02:35:42.899Z,99947.83
2019-04-25T02:36:46.961Z,99949.42
2019-04-25T02:37:51.704Z,99950.23
2019-04-25T02:38:58.513Z,99952.98
2019-04-25T02:40:05.825Z,99947.63
2019-04-25T02:41:09.137Z,99942.94
2019-04-25T02:42:16.753Z,99935.39
2019-04-25T02:43:20.260Z,99943.59
2019-04-25T02:44:24.991Z,99952.19
2019-04-25T02:45:37.564Z,99951.41
2019-04-25T02:47:03.329Z,99960.77
2019-04-25T02:48:09.326Z,99966.06
2019-04-25T02:49:34.877Z,99970.36
2019-04-25T02:50:34.221Z,99984.94
2019-04-25T02:51:55.033Z,100002.45
2019-04-25T02:53:07.293Z,99997.91
2019-04-25T02:54:14.029Z,100009.59
2019-04-25T02:55:30.773Z,100026.32
2019-04-25T02:56:33.078Z,100031.95
2019-04-25T02:57:30.895Z,100034.86
2019-04-25T02:58:35.793Z,100042.65
2019-04-25T02:59:40.613Z,100052.31
2019-04-25T03:00:52.621Z,100059.98
2019-04-25T03:01:51.385Z,100058.90
2019-04-25T03:02:57.284Z,100054.34
2019-04-25T03:04:04.880Z,100048.00
2019-04-25T03:05:10.039Z,100043.47
2019-04-25T03:06:15.263Z,100038.98
2019-04-25T03:07:19.924Z,100041.02
2019-04-25T03:08:24.606Z,100039.17
2019-04-25T03:09:29.619Z,100033.44
2019-04-25T03:10:34.885Z,100029.84
2019-04-25T03:11:39.811Z,100028.03
2019-04-25T03:12:44.713Z,100027.28
2019-04-25T03:13:49.336Z,100027.20
2019-04-25T03:14:55.040Z,100027.42
2019-04-25T03:16:00.719Z,100017.34
2019-04-25T03:17:09.731Z,100016.65
2019-04-25T03:18:15.349Z,100015.44
2019-04-25T03:19:26.263Z,100015.20
2019-04-25T03:20:48.739Z,100012.81
2019-04-25T03:22:01.562Z,100017.77
2019-04-25T03:23:09.498Z,100020.88
2019-04-25T03:24:16.815Z,100023.14
2019-04-25T03:25:20.488Z,100031.19
2019-04-25T03:26:24.958Z,100034.30
2019-04-25T03:27:30.051Z,100038.86
2019-04-25T03:28:36.096Z,100043.70
2019-04-25T03:29:40.582Z,100056.84
2019-04-25T03:30:45.167Z,100055.53
2019-04-25T03:31:49.702Z,100054.28
2019-04-25T03:32:56.154Z,100050.69
2019-04-25T03:34:02.561Z,100055.45
2019-04-25T03:35:07.441Z,100059.16
2019-04-25T03:36:11.915Z,100063.46
2019-04-25T03:37:16.390Z,100058.92
2019-04-25T03:38:20.845Z,100052.23
2019-04-25T03:39:27.065Z,100056.98
2019-04-25T03:40:31.980Z,100058.57
2019-04-25T03:41:36.452Z,100059.32
2019-04-25T03:42:41.281Z,100061.81
2019-04-25T03:43:45.747Z,100058.18
2019-04-25T03:44:50.543Z,100048.01
2019-04-25T03:45:55.303Z,100058.85
2019-04-25T03:47:00.080Z,100048.78
2019-04-25T03:48:05.634Z,100051.14
2019-04-25T03:49:10.878Z,100052.88
2019-04-25T03:50:15.537Z,100054.54
2019-04-25T03:51:20.078Z,100060.63
2019-04-25T03:52:24.547Z,100057.89
2019-04-25T03:53:29.093Z,100056.83
2019-04-25T03:54:33.583Z,100050.74
2019-04-25T03:55:38.434Z,100060.42
2019-04-25T03:56:53.279Z,100067.70
2019-04-25T03:57:49.452Z,100062.91
2019-04-25T03:58:54.079Z,100065.64
2019-04-25T03:59:58.549Z,100061.13
2019-04-25T04:01:06.618Z,100069.81
2019-04-25T04:02:09.188Z,100074.95
2019-04-25T04:03:15.161Z,100075.91
2019-04-25T04:04:20.088Z,100076.73
2019-04-25T04:05:24.880Z,100085.96
2019-04-25T04:06:29.347Z,100085.17
2019-04-25T04:07:33.816Z,100083.77
2019-04-25T04:08:38.280Z,100088.45
2019-04-25T04:09:43.608Z,100092.05
2019-04-25T04:10:48.204Z,100085.96
2019-04-25T04:11:53.431Z,100086.50
2019-04-25T04:12:58.415Z,100086.83
2019-04-25T04:14:04.930Z,100086.41
2019-04-25T04:15:09.143Z,100085.17
2019-04-25T04:16:15.744Z,100089.80
2019-04-25T04:17:36.712Z,100085.70
2019-04-25T04:18:44.207Z,100091.91
2019-04-25T04:19:56.322Z,100097.21
2019-04-25T04:21:17.541Z,100094.69
2019-04-25T04:22:24.124Z,100102.86
2019-04-25T04:23:30.237Z,100109.48
2019-04-25T04:24:36.640Z,100113.95
2019-04-25T04:25:41.493Z,100117.47
2019-04-25T04:26:47.601Z,100118.45
2019-04-25T04:27:53.718Z,100129.91
2019-04-25T04:28:58.634Z,100127.72
2019-04-25T04:30:04.188Z,100136.16
2019-04-25T04:31:09.093Z,100142.28
2019-04-25T04:32:14.775Z,100143.16
2019-04-25T04:33:29.569Z,100148.19
2019-04-25T04:34:26.237Z,100155.00
2019-04-25T04:35:30.708Z,100160.75
2019-04-25T04:36:35.174Z,100163.84
2019-04-25T04:37:39.648Z,100169.22
2019-04-25T04:38:44.496Z,100168.42
2019-04-25T04:39:49.222Z,100173.53
2019-04-25T04:40:55.145Z,100167.44
2019-04-25T04:41:59.765Z,100171.08
2019-04-25T04:43:05.092Z,100169.86
2019-04-25T04:44:09.987Z,100178.86
2019-04-25T04:45:15.774Z,100174.70
2019-04-25T04:46:20.681Z,100174.77
2019-04-25T04:47:25.794Z,100178.33
2019-04-25T04:48:30.425Z,100174.89
2019-04-25T04:49:35.208Z,100182.76
2019-04-25T04:50:40.149Z,100189.45
2019-04-25T04:51:44.622Z,100186.53
2019-04-25T04:52:50.263Z,100191.48
2019-04-25T04:53:54.729Z,100196.88
2019-04-25T04:55:06.489Z,100202.32
2019-04-25T04:56:05.782Z,100207.61
2019-04-25T04:57:25.704Z,100210.30
2019-04-25T04:58:17.619Z,100210.48
2019-04-25T04:59:24.699Z,100217.05
2019-04-25T05:00:28.615Z,100209.64
2019-04-25T05:01:34.725Z,100217.76
2019-04-25T05:02:50.993Z,100225.35
2019-04-25T05:03:57.099Z,100231.16
2019-04-25T05:05:06.252Z,100225.98
2019-04-25T05:06:16.257Z,100225.18
2019-04-25T05:07:23.732Z,100225.25
2019-04-25T05:08:31.063Z,100220.91
2019-04-25T05:09:35.876Z,100221.19
2019-04-25T05:10:40.672Z,100223.91
2019-04-25T05:11:45.412Z,100227.98
2019-04-25T05:12:49.880Z,100232.08
2019-04-25T05:13:54.343Z,100228.22
2019-04-25T05:14:58.818Z,100235.62
2019-04-25T05:16:03.669Z,100233.41
2019-04-25T05:17:08.489Z,100243.56
2019-04-25T05:18:15.639Z,100243.73
2019-04-25T05:19:19.780Z,100246.38
2019-04-25T05:20:24.470Z,100249.50
2019-04-25T05:21:28.958Z,100249.99
2019-04-25T05:22:33.988Z,100249.61
2019-04-25T05:23:38.457Z,100243.00
2019-04-25T05:24:43.846Z,100246.09
2019-04-25T05:25:48.939Z,100242.20
2019-04-25T05:26:54.005Z,100248.00
2019-04-25T05:28:02.879Z,100251.16
2019-04-25T05:29:04.737Z,100250.68
2019-04-25T05:30:11.494Z,100247.72
2019-04-25T05:31:20.053Z,100253.39
2019-04-25T05:32:25.240Z,100250.68
2019-04-25T05:33:30.200Z,100254.61
2019-04-25T05:34:35.742Z,100252.42
2019-04-25T05:35:40.204Z,100258.96
2019-04-25T05:36:44.684Z,100258.13
2019-04-25T05:37:49.145Z,100258.58
2019-04-25T05:38:53.931Z,100259.66
2019-04-25T05:39:58.457Z,100263.52
2019-04-25T05:41:04.571Z,100257.72
2019-04-25T05:42:11.010Z,100266.84
2019-04-25T05:43:16.449Z,100270.18
2019-04-25T05:44:21.078Z,100276.27
2019-04-25T05:45:27.251Z,100275.30
2019-04-25T05:46:32.017Z,100283.75
2019-04-25T05:47:37.404Z,100283.75
2019-04-25T05:48:43.820Z,100285.42
2019-04-25T05:49:48.644Z,100290.05
2019-04-25T05:50:53.788Z,100301.09
2019-04-25T05:51:58.679Z,100304.60
2019-04-25T05:53:04.287Z,100308.50
2019-04-25T05:54:08.832Z,100306.06
2019-04-25T05:55:14.256Z,100306.93
2019-04-25T05:56:20.152Z,100300.63
2019-04-25T05:57:25.020Z,100305.85
2019-04-25T05:58:30.259Z,100310.87
2019-04-25T05:59:35.076Z,100309.86
2019-04-25T06:00:44.015Z,100312.99
2019-04-25T06:01:48.838Z,100312.34
2019-04-25T06:02:53.441Z,100309.38
2019-04-25T06:03:57.837Z,100318.39
2019-04-25T06:05:03.584Z,100306.52
2019-04-25T06:06:08.042Z,100311.50
2019-04-25T06:07:14.490Z,100311.19
2019-04-25T06:08:21.298Z,100312.92
2019-04-25T06:09:28.112Z,100314.59
2019-04-25T06:10:34.170Z,100312.15
2019-04-25T06:11:48.811Z,100311.34
2019-04-25T06:13:13.816Z,100311.17
2019-04-25T06:14:20.643Z,100313.39
2019-04-25T06:15:27.062Z,100311.22
2019-04-25T06:16:33.338Z,100315.78
2019-04-25T06:17:45.178Z,100317.91
2019-04-25T06:19:13.669Z,100315.70
2019-04-25T06:20:11.384Z,100319.39
2019-04-25T06:21:15.846Z,100320.44
2019-04-25T06:22:25.553Z,100322.92
2019-04-25T06:23:47.644Z,100327.58
2019-04-25T06:24:54.267Z,100329.53
2019-04-25T06:25:58.773Z,100323.78
2019-04-25T06:27:16.763Z,100328.28
2019-04-25T06:28:23.957Z,100324.80
2019-04-25T06:29:29.262Z,100329.80
2019-04-25T06:30:35.215Z,100337.46
2019-04-25T06:31:39.903Z,100329.83
2019-04-25T06:32:44.390Z,100338.30
2019-04-25T06:33:48.969Z,100333.48
2019-04-25T06:34:54.258Z,100333.67
2019-04-25T06:35:59.139Z,100339.48
2019-04-25T06:37:04.823Z,100341.43
2019-04-25T06:38:09.916Z,100332.72
2019-04-25T06:39:15.346Z,100341.52
2019-04-25T06:40:20.567Z,100348.05
2019-04-25T06:41:26.183Z,100345.93
2019-04-25T06:42:31.463Z,100338.32
2019-04-25T06:43:37.849Z,100344.97
2019-04-25T06:44:53.476Z,100346.70
2019-04-25T06:46:15.669Z,100346.29
2019-04-25T06:47:25.648Z,100343.49
2019-04-25T06:48:37.899Z,100347.16
2019-04-25T06:49:43.339Z,100346.00
2019-04-25T06:50:47.794Z,100350.60
2019-04-25T06:51:54.641Z,100347.41
2019-04-25T06:52:59.416Z,100346.94
2019-04-25T06:54:04.150Z,100345.18
2019-04-25T06:55:08.751Z,100342.12
2019-04-25T06:56:14.569Z,100342.03
2019-04-25T06:57:19.046Z,100344.80
2019-04-25T06:58:26.907Z,100340.62
2019-04-25T06:59:30.153Z,100345.20
2019-04-25T07:00:40.935Z,100346.22
2019-04-25T07:01:40.838Z,100339.92
2019-04-25T07:02:45.311Z,100340.42
2019-04-25T07:03:50.054Z,100342.44
2019-04-25T07:04:54.811Z,100341.66
2019-04-25T07:05:59.267Z,100340.66
2019-04-25T07:07:10.554Z,100339.80
2019-04-25T07:08:10.559Z,100344.38
2019-04-25T07:09:17.531Z,100343.68
2019-04-25T07:10:24.180Z,100354.41
2019-04-25T07:11:28.305Z,100346.71
2019-04-25T07:12:34.457Z,100350.88
2019-04-25T07:13:39.183Z,100351.75
2019-04-25T07:14:43.983Z,100347.52
2019-04-25T07:15:48.578Z,100357.52
2019-04-25T07:16:53.326Z,100349.09
2019-04-25T07:17:57.775Z,100355.80
2019-04-25T07:19:02.388Z,100356.24
2019-04-25T07:20:09.897Z,100353.97
2019-04-25T07:21:15.727Z,100354.57
2019-04-25T07:22:20.255Z,100354.86
2019-04-25T07:23:25.448Z,100355.72
2019-04-25T07:24:30.170Z,100355.39
2019-04-25T07:25:36.742Z,100357.45
2019-04-25T07:26:45.833Z,100354.08
2019-04-25T07:27:58.005Z,100360.48
2019-04-25T07:29:05.386Z,100361.33
2019-04-25T07:30:46.839Z,100362.72
2019-04-25T07:31:42.419Z,100367.55
2019-04-25T07:32:57.406Z,100369.22
2019-04-25T07:34:03.652Z,100370.66
2019-04-25T07:35:08.547Z,100377.59
2019-04-25T07:36:13.835Z,100374.19
2019-04-25T07:37:19.205Z,100374.34
2019-04-25T07:38:25.535Z,100375.27
2019-04-25T07:39:30.363Z,100379.81
2019-04-25T07:40:35.223Z,100379.98
2019-04-25T07:41:40.590Z,100382.70
2019-04-25T07:42:45.121Z,100390.45
2019-04-25T07:43:49.668Z,100388.20
2019-04-25T07:44:55.205Z,100388.34
2019-04-25T07:45:59.797Z,100396.08
2019-04-25T07:47:04.780Z,100390.91
2019-04-25T07:48:09.630Z,100402.09
2019-04-25T07:49:14.104Z,100396.94
2019-04-25T07:50:18.900Z,100396.48
2019-04-25T07:51:23.738Z,100392.33
2019-04-25T07:52:29.689Z,100399.70
2019-04-25T07:53:35.135Z,100394.94
2019-04-25T07:54:40.498Z,100398.45
2019-04-25T07:55:44.958Z,100399.37
2019-04-25T07:56:49.426Z,100408.23
2019-04-25T07:57:54.185Z,100411.73
2019-04-25T07:58:58.661Z,100411.27
2019-04-25T08:00:04.779Z,100415.95
2019-04-25T08:01:11.887Z,100408.04
2019-04-25T08:02:17.957Z,100411.86
2019-04-25T08:03:23.736Z,100412.36
2019-04-25T08:04:29.053Z,100421.89
2019-04-25T08:05:35.168Z,100418.31
2019-04-25T08:06:39.806Z,100421.34
2019-04-25T08:07:44.560Z,100421.12
2019-04-25T08:08:49.428Z,100419.88
2019-04-25T08:09:54.273Z,100420.81
2019-04-25T08:11:04.051Z,100420.27
2019-04-25T08:12:08.632Z,100419.63
2019-04-25T08:13:13.361Z,100421.70
2019-04-25T08:14:35.132Z,100422.22
2019-04-25T08:15:43.955Z,100424.98
2019-04-25T08:16:53.785Z,100421.82
2019-04-25T08:18:06.449Z,100429.69
2019-04-25T08:19:13.623Z,100433.37
2019-04-25T08:20:18.935Z,100429.03
2019-04-25T08:21:23.954Z,100422.50
2019-04-25T08:22:30.040Z,100422.66
2019-04-25T08:23:37.554Z,100423.18
2019-04-25T08:24:43.872Z,100425.41
2019-04-25T08:25:48.428Z,100428.11
2019-04-25T08:26:53.461Z,100422.09
2019-04-25T08:27:58.086Z,100425.97
2019-04-25T08:29:03.632Z,100427.76
2019-04-25T08:30:08.872Z,100434.20
2019-04-25T08:31:13.622Z,100425.88
2019-04-25T08:32:19.199Z,100426.86
2019-04-25T08:33:23.768Z,100425.27
2019-04-25T08:34:30.188Z,100429.98
2019-04-25T08:35:36.534Z,100423.83
2019-04-25T08:36:41.541Z,100431.14
2019-04-25T08:37:46.310Z,100431.60
2019-04-25T08:38:51.056Z,100439.31
2019-04-25T08:39:55.846Z,100438.62
2019-04-25T08:41:01.557Z,100436.92
2019-04-25T08:42:06.015Z,100436.20
2019-04-25T08:43:10.766Z,100434.07
2019-04-25T08:44:15.257Z,100434.33
2019-04-25T08:45:20.830Z,100443.27
2019-04-25T08:46:25.427Z,100436.23
2019-04-25T08:47:30.436Z,100438.54
2019-04-25T08:48:37.398Z,100442.76
2019-04-25T08:49:45.759Z,100442.08
2019-04-25T08:50:57.681Z,100440.47
2019-04-25T08:52:02.136Z,100452.95
2019-04-25T08:53:06.589Z,100452.08
2019-04-25T08:54:18.431Z,100448.95
2019-04-25T08:55:42.058Z,100447.58
2019-04-25T08:56:46.579Z,100447.48
2019-04-25T08:57:55.921Z,100440.84
2019-04-25T08:59:06.231Z,100449.98
2019-04-25T09:00:14.399Z,100444.11
2019-04-25T09:01:26.378Z,100446.14
2019-04-25T09:02:37.136Z,100444.50
2019-04-25T09:03:48.616Z,100438.44
2019-04-25T09:05:10.963Z,100445.34
2019-04-25T09:06:15.767Z,100438.59
2019-04-25T09:07:20.235Z,100445.47
2019-04-25T09:08:24.764Z,100448.70
2019-04-25T09:09:29.227Z,100450.19
2019-04-25T09:10:36.423Z,100444.34
2019-04-25T09:11:40.165Z,100452.55
2019-04-25T09:12:45.355Z,100451.22
2019-04-25T09:13:49.855Z,100450.95
2019-04-25T09:14:54.825Z,100451.92
2019-04-25T09:16:00.066Z,100448.41
2019-04-25T09:17:04.927Z,100445.28
2019-04-25T09:18:09.555Z,100445.98
2019-04-25T09:19:14.309Z,100442.98
2019-04-25T09:20:20.134Z,100443.84
2019-04-25T09:21:25.234Z,100438.26
2019-04-25T09:22:29.941Z,100437.23
2019-04-25T09:23:36.468Z,100438.44
2019-04-25T09:24:42.099Z,100443.11
2019-04-25T09:25:46.946Z,100432.83
2019-04-25T09:26:53.918Z,100435.80
2019-04-25T09:27:58.681Z,100430.19
2019-04-25T09:29:15.989Z,100430.72
2019-04-25T09:30:10.263Z,100431.05
2019-04-25T09:31:14.984Z,100431.22
2019-04-25T09:32:19.602Z,100439.55
2019-04-25T09:33:24.109Z,100438.79
2019-04-25T09:34:28.732Z,100438.97
2019-04-25T09:35:33.666Z,100440.89
2019-04-25T09:36:38.250Z,100431.60
2019-04-25T09:37:44.783Z,100434.77
2019-04-25T09:38:53.843Z,100434.66
2019-04-25T09:40:05.686Z,100436.92
2019-04-25T09:41:10.977Z,100434.91
2019-04-25T09:42:15.989Z,100430.89
2019-04-25T09:43:21.101Z,100426.37
2019-04-25T09:44:33.178Z,100426.82
2019-04-25T09:45:43.903Z,100430.74
2019-04-25T09:46:49.305Z,100430.63
2019-04-25T09:47:55.762Z,100432.95
2019-04-25T09:49:07.611Z,100436.20
2019-04-25T09:50:13.970Z,100435.03
2019-04-25T09:51:23.608Z,100443.29
2019-04-25T09:52:28.115Z,100434.61
2019-04-25T09:53:34.833Z,100442.52
2019-04-25T09:54:53.527Z,100441.78
2019-04-25T09:56:04.116Z,100437.68
2019-04-25T09:57:11.361Z,100432.91
2019-04-25T09:58:23.862Z,100432.82
2019-04-25T09:59:30.125Z,100434.58
2019-04-25T10:00:40.409Z,100435.79
2019-04-25T10:01:48.708Z,100429.76
2019-04-25T10:02:55.354Z,100423.78
2019-04-25T10:03:59.837Z,100426.80
2019-04-25T10:05:08.285Z,100425.41
2019-04-25T10:06:14.841Z,100425.50
2019-04-25T10:07:19.287Z,100423.46
2019-04-25T10:08:24.251Z,100422.17
2019-04-25T10:09:29.037Z,100421.64
2019-04-25T10:10:33.921Z,100423.98
2019-04-25T10:11:38.423Z,100414.23
2019-04-25T10:12:44.225Z,100412.50
2019-04-25T10:13:53.272Z,100417.59
2019-04-25T10:15:20.406Z,100428.81
2019-04-25T10:16:25.250Z,100414.02
2019-04-25T10:17:30.005Z,100417.81
2019-04-25T10:18:35.627Z,100421.03
2019-04-25T10:19:40.980Z,100424.48
2019-04-25T10:20:46.316Z,100422.12
2019-04-25T10:21:51.822Z,100417.81
2019-04-25T10:22:57.021Z,100420.02
2019-04-25T10:24:03.530Z,100420.98
2019-04-25T10:25:08.149Z,100420.16
2019-04-25T10:26:13.539Z,100421.05
2019-04-25T10:27:17.985Z,100417.70
2019-04-25T10:28:23.371Z,100423.37
2019-04-25T10:29:39.346Z,100418.59
2019-04-25T10:30:34.822Z,100415.63
2019-04-25T10:31:39.874Z,100417.05
2019-04-25T10:32:46.227Z,100420.69
2019-04-25T10:33:50.820Z,100414.78
2019-04-25T10:34:55.571Z,100414.50
2019-04-25T10:36:01.205Z,100417.16
2019-04-25T10:37:06.439Z,100418.29
2019-04-25T10:38:10.894Z,100407.67
2019-04-25T10:39:15.450Z,100411.59
2019-04-25T10:40:20.911Z,100408.65
2019-04-25T10:41:25.531Z,100408.00
2019-04-25T10:42:30.146Z,100410.82
2019-04-25T10:43:35.342Z,100410.53
2019-04-25T10:44:40.174Z,100412.79
2019-04-25T10:45:48.703Z,100417.89
2019-04-25T10:46:54.605Z,100417.45
2019-04-25T10:48:00.241Z,100414.08
2019-04-25T10:49:04.964Z,100408.23
2019-04-25T10:50:09.792Z,100414.42
2019-04-25T10:51:14.320Z,100412.92
2019-04-25T10:52:19.490Z,100410.69
2019-04-25T10:53:25.169Z,100420.23
2019-04-25T10:54:30.181Z,100410.02
2019-04-25T10:55:34.881Z,100410.75
2019-04-25T10:56:40.141Z,100409.66
2019-04-25T10:57:45.527Z,100409.17
2019-04-25T10:58:50.911Z,100407.72
2019-04-25T11:00:06.146Z,100409.51
2019-04-25T11:01:01.975Z,100406.12
2019-04-25T11:02:08.174Z,100399.75
2019-04-25T11:03:30.251Z,100403.67
2019-04-25T11:04:36.354Z,100405.88
2019-04-25T11:05:41.495Z,100406.74
2019-04-25T11:06:45.959Z,100398.95
2019-04-25T11:07:50.448Z,100396.02
2019-04-25T11:08:57.574Z,100401.56
2019-04-25T11:10:03.603Z,100395.30
2019-04-25T11:11:10.814Z,100389.30
2019-04-25T11:12:16.288Z,100384.40
2019-04-25T11:13:24.891Z,100387.47
2019-04-25T11:14:30.976Z,100380.20
2019-04-25T11:15:36.145Z,100376.81
2019-04-25T11:16:40.697Z,100380.74
2019-04-25T11:17:46.770Z,100378.38
2019-04-25T11:18:52.594Z,100375.80
2019-04-25T11:19:57.822Z,100383.07
2019-04-25T11:21:05.595Z,100375.11
2019-04-25T11:22:08.846Z,100383.70
2019-04-25T11:23:13.963Z,100380.73
2019-04-25T11:24:18.520Z,100385.40
2019-04-25T11:25:24.503Z,100381.53
2019-04-25T11:26:29.026Z,100382.74
2019-04-25T11:27:34.032Z,100383.47
2019-04-25T11:28:40.639Z,100380.53
2019-04-25T11:29:46.035Z,100373.28
2019-04-25T11:30:52.746Z,100381.53
2019-04-25T11:31:58.344Z,100378.18
2019-04-25T11:33:03.586Z,100374.91
2019-04-25T11:34:09.443Z,100376.07
2019-04-25T11:35:14.968Z,100374.20
2019-04-25T11:36:20.039Z,100377.86
2019-04-25T11:37:26.765Z,100369.81
2019-04-25T11:38:38.877Z,100373.75
2019-04-25T11:39:45.997Z,100370.67
2019-04-25T11:40:55.162Z,100366.72
2019-04-25T11:42:00.024Z,100370.64
2019-04-25T11:43:04.693Z,100368.79
2019-04-25T11:44:09.147Z,100375.41
2019-04-25T11:45:14.409Z,100363.93
2019-04-25T11:46:19.028Z,100362.28
2019-04-25T11:47:25.580Z,100362.28
2019-04-25T11:48:30.314Z,100375.91
2019-04-25T11:49:35.288Z,100370.30
2019-04-25T11:50:40.932Z,100363.30
2019-04-25T11:51:46.106Z,100365.45
2019-04-25T11:52:51.011Z,100360.47
2019-04-25T11:53:55.609Z,100362.13
2019-04-25T11:55:00.416Z,100367.28
2019-04-25T11:56:05.035Z,100370.59
2019-04-25T11:57:09.485Z,100364.42
2019-04-25T11:58:14.332Z,100365.05
2019-04-25T11:59:18.945Z,100362.70
2019-04-25T12:00:30.623Z,100360.62
2019-04-25T12:01:35.401Z,100365.30
2019-04-25T12:02:39.929Z,100363.48
2019-04-25T12:03:46.608Z,100360.15
2019-04-25T12:04:51.056Z,100369.75
2019-04-25T12:05:56.872Z,100368.81
2019-04-25T12:07:03.843Z,100363.95
2019-04-25T12:08:08.683Z,100360.78
2019-04-25T12:09:13.871Z,100364.56
2019-04-25T12:10:19.579Z,100365.03
2019-04-25T12:11:25.249Z,100359.48
2019-04-25T12:12:29.822Z,100356.56
2019-04-25T12:13:34.563Z,100359.25
2019-04-25T12:14:39.362Z,100364.56
2019-04-25T12:15:46.043Z,100364.86
2019-04-25T12:16:51.899Z,100371.35
2019-04-25T12:17:57.621Z,100369.02
2019-04-25T12:19:02.126Z,100368.87
2019-04-25T12:20:06.946Z,100362.36
2019-04-25T12:21:11.506Z,100365.67
2019-04-25T12:22:15.945Z,100367.41
2019-04-25T12:23:20.726Z,100361.91
2019-04-25T12:24:25.473Z,100363.06
2019-04-25T12:25:29.939Z,100363.36
2019-04-25T12:26:34.411Z,100363.06
2019-04-25T12:27:39.151Z,100363.66
2019-04-25T12:28:44.991Z,100367.60
2019-04-25T12:29:50.343Z,100366.00
2019-04-25T12:30:55.419Z,100364.66
2019-04-25T12:32:01.212Z,100367.27
2019-04-25T12:33:18.012Z,100373.55
2019-04-25T12:34:11.839Z,100368.00
2019-04-25T12:35:16.292Z,100367.67
2019-04-25T12:36:20.751Z,100362.77
2019-04-25T12:37:25.287Z,100370.22
2019-04-25T12:38:29.763Z,100368.53
2019-04-25T12:39:35.194Z,100363.51
2019-04-25T12:40:39.942Z,100363.05
2019-04-25T12:41:46.753Z,100361.73
2019-04-25T12:42:52.191Z,100365.14